createdAt,value
2019-04-19T12:42:42.080Z,28.00
2019-04-19T12:43:40.880Z,36.00
2019-04-19T12:44:42.030Z,32.00
2019-04-19T12:45:42.058Z,36.00
2019-04-19T12:47:04.805Z,48.00
2019-04-19T12:48:04.982Z,12.00
2019-04-19T12:49:04.610Z,12.00
2019-04-19T12:50:07.557Z,12.00
2019-04-19T12:51:03.774Z,12.00
2019-04-19T12:52:04.108Z,20.00
2019-04-19T12:53:04.268Z,16.00
2019-04-19T12:54:03.704Z,8.00
2019-04-19T12:54:56.751Z,8.00
2019-04-19T12:55:44.127Z,20.00
2019-04-19T12:56:44.288Z,20.00
2019-04-19T12:57:43.948Z,20.00
2019-04-19T12:58:44.050Z,20.00
2019-04-19T12:59:44.258Z,20.00
2019-04-19T13:00:43.864Z,20.00
2019-04-19T13:01:43.957Z,20.00
2019-04-19T13:02:44.988Z,20.00
2019-04-19T13:03:44.477Z,20.00
2019-04-19T13:04:44.381Z,20.00
2019-04-19T13:05:43.759Z,8.00
2019-04-19T13:06:44.089Z,16.00
2019-04-19T13:07:43.717Z,8.00
2019-04-19T13:08:43.695Z,16.00
2019-04-19T13:09:44.614Z,16.00
2019-04-19T13:10:44.863Z,16.00
2019-04-19T13:11:43.629Z,16.00
2019-04-19T13:12:44.030Z,16.00
2019-04-19T13:13:43.780Z,16.00
2019-04-19T13:14:43.897Z,16.00
2019-04-19T13:24:24.551Z,0.00
2019-04-19T13:25:23.967Z,0.00
2019-04-19T13:26:25.139Z,0.00
2019-04-19T13:27:36.516Z,0.00
2019-04-19T13:28:23.912Z,0.00
2019-04-19T13:29:25.253Z,0.00
2019-04-19T13:30:33.037Z,0.00
2019-04-19T13:31:24.834Z,0.00
2019-04-19T13:32:23.955Z,0.00
2019-04-19T13:33:24.118Z,0.00
2019-04-19T13:34:25.017Z,0.00
2019-04-19T13:35:23.791Z,0.00
2019-04-19T13:36:24.822Z,0.00
2019-04-19T13:37:24.901Z,0.00
2019-04-19T13:38:23.743Z,0.00
2019-04-19T13:39:23.727Z,0.00
2019-04-19T13:40:24.216Z,0.00
2019-04-19T13:41:25.009Z,0.00
2019-04-19T13:42:24.565Z,0.00
2019-04-19T13:43:24.832Z,0.00
2019-04-19T13:44:24.964Z,0.00
2019-04-19T13:45:29.660Z,0.00
2019-04-19T13:46:24.543Z,0.00
2019-04-19T13:47:24.630Z,0.00
2019-04-19T13:48:24.915Z,0.00
2019-04-19T13:49:24.431Z,0.00
2019-04-19T13:50:29.470Z,0.00
2019-04-19T13:51:24.715Z,0.00
2019-04-19T13:52:24.296Z,0.00
2019-04-19T13:53:24.587Z,0.00
2019-04-19T13:54:24.846Z,0.00
2019-04-19T13:55:24.444Z,0.00
2019-04-19T13:56:24.777Z,0.00
2019-04-19T13:57:23.797Z,0.00
2019-04-19T13:58:23.415Z,0.00
2019-04-19T13:59:37.665Z,0.00
2019-04-19T14:00:24.600Z,0.00
2019-04-19T14:01:24.582Z,0.00
2019-04-19T14:02:23.350Z,0.00
2019-04-19T14:03:23.515Z,0.00
2019-04-19T14:04:23.689Z,0.00
2019-04-19T14:05:23.414Z,0.00
2019-04-19T14:06:24.469Z,0.00
2019-04-19T14:07:23.273Z,0.00
2019-04-19T14:08:23.259Z,0.00
2019-04-19T14:09:23.251Z,0.00
2019-04-19T14:10:23.377Z,0.00
2019-04-19T14:11:23.212Z,0.00
2019-04-19T14:12:23.195Z,0.00
2019-04-19T14:13:23.279Z,0.00
2019-04-19T14:14:23.398Z,0.00
2019-04-19T14:15:23.145Z,0.00
2019-04-19T14:16:23.838Z,0.00
2019-04-19T14:17:24.097Z,0.00
2019-04-19T14:18:23.106Z,0.00
2019-04-19T14:19:23.085Z,0.00
2019-04-19T14:20:32.598Z,0.00
2019-04-19T14:21:23.110Z,0.00
2019-04-19T14:22:23.437Z,0.00
2019-04-19T14:23:23.604Z,0.00
2019-04-19T14:24:23.005Z,0.00
2019-04-19T14:25:23.319Z,0.00
2019-04-19T14:26:36.880Z,0.00
2019-04-19T14:27:23.490Z,0.00
2019-04-19T14:28:23.321Z,0.00
2019-04-19T14:29:23.332Z,0.00
2019-04-19T14:30:23.602Z,0.00
2019-04-19T14:31:23.999Z,0.00
2019-04-19T14:32:23.288Z,0.00
2019-04-19T14:33:23.158Z,0.00
2019-04-19T14:34:22.848Z,0.00
2019-04-19T14:35:23.937Z,0.00
2019-04-19T14:36:23.986Z,0.00
2019-04-19T14:37:22.801Z,0.00
2019-04-19T14:38:23.598Z,0.00
2019-04-19T14:39:22.785Z,0.00
2019-04-19T14:40:23.699Z,0.00
2019-04-19T14:41:23.184Z,0.00
2019-04-19T14:42:26.015Z,0.00
2019-04-19T14:43:22.796Z,0.00
2019-04-19T14:44:22.693Z,0.00
2019-04-19T14:45:23.915Z,0.00
2019-04-19T14:46:22.783Z,0.00
2019-04-19T14:47:23.197Z,0.00
2019-04-19T14:48:28.479Z,0.00
2019-04-19T14:49:22.895Z,0.00
2019-04-19T14:50:23.167Z,0.00
2019-04-19T14:51:27.968Z,0.00
2019-04-19T14:52:23.633Z,0.00
2019-04-19T14:53:22.553Z,0.00
2019-04-19T14:54:23.342Z,0.00
2019-04-19T14:55:23.241Z,0.00
2019-04-19T14:56:23.730Z,0.00
2019-04-19T14:57:23.173Z,0.00
2019-04-19T14:58:22.477Z,0.00
2019-04-19T14:59:22.558Z,0.00
2019-04-19T15:00:22.982Z,0.00
2019-04-19T15:01:22.430Z,0.00
2019-04-19T15:02:22.805Z,0.00
2019-04-19T15:03:22.976Z,0.00
2019-04-19T15:04:22.383Z,0.00
2019-04-19T15:05:23.516Z,0.00
2019-04-19T15:06:22.354Z,0.00
2019-04-19T15:07:22.800Z,0.00
2019-04-19T15:08:22.569Z,0.00
2019-04-19T15:09:23.564Z,0.00
2019-04-19T15:10:22.291Z,0.00
2019-04-19T15:11:23.421Z,0.00
2019-04-19T15:12:22.838Z,0.00
2019-04-19T15:13:23.018Z,0.00
2019-04-19T15:14:22.227Z,0.00
2019-04-19T15:15:22.380Z,0.00
2019-04-19T15:16:23.214Z,0.00
2019-04-19T15:17:23.515Z,0.00
2019-04-19T15:18:23.298Z,0.00
2019-04-19T15:19:23.093Z,0.00
2019-04-19T15:20:22.250Z,0.00
2019-04-19T15:21:23.588Z,0.00
2019-04-19T15:22:22.156Z,0.00
2019-04-19T15:23:22.535Z,0.00
2019-04-19T15:24:22.963Z,0.00
2019-04-19T15:25:22.060Z,0.00
2019-04-19T15:26:22.684Z,0.00
2019-04-19T15:27:23.129Z,0.00
2019-04-19T15:28:22.743Z,0.00
2019-04-19T15:29:22.902Z,0.00
2019-04-19T15:30:23.136Z,0.00
2019-04-19T15:31:21.964Z,0.00
2019-04-19T15:32:22.301Z,0.00
2019-04-19T15:33:22.658Z,0.00
2019-04-19T15:34:21.997Z,0.00
2019-04-19T15:35:21.902Z,0.00
2019-04-19T15:36:21.888Z,0.00
2019-04-19T15:37:23.074Z,0.00
2019-04-19T15:38:21.856Z,0.00
2019-04-19T15:39:21.948Z,0.00
2019-04-19T15:40:22.439Z,0.00
2019-04-19T15:41:22.084Z,0.00
2019-04-19T15:42:22.644Z,0.00
2019-04-19T15:43:21.779Z,0.00
2019-04-19T15:44:22.369Z,0.00
2019-04-19T15:45:22.929Z,0.00
2019-04-19T15:46:21.847Z,0.00
2019-04-19T15:47:21.718Z,0.00
2019-04-19T15:48:32.935Z,0.00
2019-04-19T15:49:21.871Z,0.00
2019-04-19T15:50:22.126Z,0.00
2019-04-19T15:51:27.135Z,0.00
2019-04-19T15:52:22.014Z,0.00
2019-04-19T15:53:22.186Z,0.00
2019-04-19T15:54:21.606Z,0.00
2019-04-19T15:55:21.909Z,0.00
2019-04-19T15:56:22.337Z,0.00
2019-04-19T15:57:21.560Z,0.00
2019-04-19T15:58:22.413Z,0.00
2019-04-19T15:59:23.905Z,0.00
2019-04-19T16:00:22.300Z,0.00
2019-04-19T16:01:21.911Z,0.00
2019-04-19T16:02:22.072Z,0.00
2019-04-19T16:03:22.287Z,0.00
2019-04-19T16:04:21.831Z,0.00
2019-04-19T16:05:22.176Z,0.00
2019-04-19T16:06:22.475Z,0.00
2019-04-19T16:07:21.897Z,0.00
2019-04-19T16:08:22.541Z,0.00
2019-04-19T16:09:21.508Z,0.00
2019-04-19T16:10:22.353Z,0.00
2019-04-19T16:11:22.567Z,0.00
2019-04-19T16:12:21.779Z,0.00
2019-04-19T16:13:21.312Z,0.00
2019-04-19T16:14:21.901Z,0.00
2019-04-19T16:15:22.154Z,0.00
2019-04-19T16:16:23.073Z,0.00
2019-04-19T16:17:21.252Z,0.00
2019-04-19T16:18:22.217Z,0.00
2019-04-19T16:19:22.518Z,0.00
2019-04-19T16:20:21.232Z,0.00
2019-04-19T16:21:27.090Z,0.00
2019-04-19T16:22:22.384Z,0.00
2019-04-19T16:23:21.157Z,0.00
2019-04-19T16:24:21.143Z,0.00
2019-04-19T16:25:21.256Z,0.00
2019-04-19T16:26:21.261Z,0.00
2019-04-19T16:27:21.094Z,0.00
2019-04-19T16:28:21.386Z,0.00
2019-04-19T16:29:27.804Z,0.00
2019-04-19T16:30:21.045Z,0.00
2019-04-19T16:31:22.267Z,0.00
2019-04-19T16:32:21.203Z,0.00
2019-04-19T16:33:22.057Z,0.00
2019-04-19T16:34:20.982Z,0.00
2019-04-19T16:35:22.195Z,0.00
2019-04-19T16:36:21.176Z,0.00
2019-04-19T16:37:20.946Z,0.00
2019-04-19T16:38:21.914Z,0.00
2019-04-19T16:39:21.386Z,0.00
2019-04-19T16:40:20.889Z,0.00
2019-04-19T16:41:20.874Z,0.00
2019-04-19T16:42:21.019Z,0.00
2019-04-19T16:43:21.579Z,0.00
2019-04-19T16:44:20.828Z,0.00
2019-04-19T16:45:21.926Z,0.00
2019-04-19T16:46:24.219Z,0.00
2019-04-19T16:47:21.660Z,0.00
2019-04-19T16:48:20.764Z,0.00
2019-04-19T16:49:20.749Z,0.00
2019-04-19T16:50:20.786Z,0.00
2019-04-19T16:51:32.094Z,0.00
2019-04-19T16:52:20.702Z,0.00
2019-04-19T16:53:21.830Z,0.00
2019-04-19T16:54:20.671Z,0.00
2019-04-19T16:55:21.222Z,0.00
2019-04-19T16:56:21.767Z,0.00
2019-04-19T16:57:25.258Z,0.00
2019-04-19T16:58:20.867Z,0.00
2019-04-19T16:59:21.742Z,0.00
2019-04-19T17:00:20.597Z,0.00
2019-04-19T17:01:20.884Z,0.00
2019-04-19T17:02:20.545Z,0.00
2019-04-19T17:03:21.586Z,0.00
2019-04-19T17:04:23.221Z,0.00
2019-04-19T17:05:20.891Z,0.00
2019-04-19T17:06:20.495Z,0.00
2019-04-19T17:07:20.713Z,0.00
2019-04-19T17:08:21.688Z,0.00
2019-04-19T17:09:20.764Z,0.00
2019-04-19T17:10:21.640Z,0.00
2019-04-19T17:11:21.663Z,0.00
2019-04-19T17:12:20.940Z,0.00
2019-04-19T17:13:20.594Z,0.00
2019-04-19T17:14:21.017Z,0.00
2019-04-19T17:15:21.157Z,0.00
2019-04-19T17:16:20.329Z,0.00
2019-04-19T17:17:20.470Z,0.00
2019-04-19T17:18:20.711Z,0.00
2019-04-19T17:19:21.081Z,0.00
2019-04-19T17:20:21.561Z,0.00
2019-04-19T17:21:20.260Z,0.00
2019-04-19T17:22:23.443Z,0.00
2019-04-19T17:23:20.218Z,0.00
2019-04-19T17:24:20.879Z,0.00
2019-04-19T17:25:21.123Z,0.00
2019-04-19T17:26:20.359Z,0.00
2019-04-19T17:27:25.056Z,0.00
2019-04-19T17:28:21.147Z,0.00
2019-04-19T17:29:20.122Z,0.00
2019-04-19T17:30:20.274Z,0.00
2019-04-19T17:31:20.324Z,0.00
2019-04-19T17:32:20.554Z,0.00
2019-04-19T17:33:20.155Z,0.00
2019-04-19T17:34:20.248Z,0.00
2019-04-19T17:35:20.477Z,0.00
2019-04-19T17:36:20.115Z,0.00
2019-04-19T17:37:20.272Z,0.00
2019-04-19T17:39:20.462Z,0.00
2019-04-19T17:39:47.132Z,0.00
2019-04-19T17:40:20.558Z,0.00
2019-04-19T17:41:20.763Z,0.00
2019-04-19T17:42:19.921Z,0.00
2019-04-19T17:43:19.907Z,0.00
2019-04-19T17:44:19.889Z,0.00
2019-04-19T17:45:19.997Z,0.00
2019-04-19T17:46:20.252Z,0.00
2019-04-19T17:47:24.355Z,0.00
2019-04-19T17:48:20.745Z,0.00
2019-04-19T17:49:20.370Z,0.00
2019-04-19T17:50:20.713Z,0.00
2019-04-19T17:51:19.943Z,0.00
2019-04-19T17:52:26.250Z,0.00
2019-04-19T17:53:20.515Z,0.00
2019-04-19T17:54:41.522Z,0.00
2019-04-19T17:55:27.460Z,0.00
2019-04-19T17:56:19.698Z,0.00
2019-04-19T17:57:20.925Z,0.00
2019-04-19T17:58:19.669Z,0.00
2019-04-19T17:59:21.132Z,0.00
2019-04-19T18:00:19.638Z,0.00
2019-04-19T18:01:20.231Z,0.00
2019-04-19T18:02:19.604Z,0.00
2019-04-19T18:03:20.447Z,0.00
2019-04-19T18:04:19.915Z,0.00
2019-04-19T18:05:20.135Z,0.00
2019-04-19T18:06:20.359Z,0.00
2019-04-19T18:07:20.773Z,0.00
2019-04-19T18:08:25.420Z,0.00
2019-04-19T18:09:21.259Z,0.00
2019-04-19T18:10:22.039Z,0.00
2019-04-19T18:11:22.665Z,0.00
2019-04-19T18:12:19.447Z,0.00
2019-04-19T18:13:19.506Z,0.00
2019-04-19T18:14:19.866Z,0.00
2019-04-19T18:15:19.660Z,0.00
2019-04-19T18:16:20.582Z,0.00
2019-04-19T18:17:19.369Z,0.00
2019-04-19T18:18:20.858Z,0.00
2019-04-19T18:19:24.104Z,0.00
2019-04-19T18:20:21.193Z,0.00
2019-04-19T18:21:19.405Z,0.00
2019-04-19T18:22:34.420Z,0.00
2019-04-19T18:23:30.424Z,0.00
2019-04-19T18:24:25.483Z,0.00
2019-04-19T18:25:20.127Z,0.00
2019-04-19T18:26:28.363Z,0.00
2019-04-19T18:27:24.692Z,0.00
2019-04-19T18:28:19.780Z,0.00
2019-04-19T18:29:23.176Z,0.00
2019-04-19T18:30:20.114Z,0.00
2019-04-19T18:31:25.985Z,0.00
2019-04-19T18:32:20.419Z,0.00
2019-04-19T18:33:20.196Z,0.00
2019-04-19T18:34:19.106Z,0.00
2019-04-19T18:35:25.249Z,0.00
2019-04-19T18:36:23.253Z,0.00
2019-04-19T18:37:22.667Z,0.00
2019-04-19T18:38:21.375Z,0.00
2019-04-19T18:39:20.120Z,0.00
2019-04-19T18:40:19.471Z,0.00
2019-04-19T18:41:18.997Z,0.00
2019-04-19T18:42:19.913Z,0.00
2019-04-19T18:43:27.902Z,0.00
2019-04-19T18:44:25.690Z,0.00
2019-04-19T18:45:24.756Z,0.00
2019-04-19T18:46:18.921Z,0.00
2019-04-19T18:47:18.903Z,0.00
2019-04-19T18:48:19.788Z,0.00
2019-04-19T18:49:18.871Z,0.00
2019-04-19T18:50:20.258Z,0.00
2019-04-19T18:51:30.815Z,0.00
2019-04-19T18:52:35.856Z,0.00
2019-04-19T18:53:28.534Z,0.00
2019-04-19T18:54:25.870Z,0.00
2019-04-19T18:55:27.318Z,0.00
2019-04-19T18:56:22.061Z,0.00
2019-04-19T18:57:19.013Z,0.00
2019-04-19T18:58:24.941Z,0.00
2019-04-19T18:59:22.695Z,0.00
2019-04-19T19:00:18.805Z,0.00
2019-04-19T19:01:25.753Z,0.00
2019-04-19T19:02:23.213Z,0.00
2019-04-19T19:03:19.897Z,0.00
2019-04-19T19:04:24.240Z,0.00
2019-04-19T19:05:18.624Z,0.00
2019-04-19T19:06:22.164Z,0.00
2019-04-19T19:07:23.404Z,0.00
2019-04-19T19:08:26.066Z,0.00
2019-04-19T19:09:21.256Z,0.00
2019-04-19T19:10:24.488Z,0.00
2019-04-19T19:11:20.981Z,0.00
2019-04-19T19:12:18.591Z,0.00
2019-04-19T19:13:27.628Z,0.00
2019-04-19T19:14:21.482Z,0.00
2019-04-19T19:15:18.755Z,0.00
2019-04-19T19:16:23.540Z,0.00
2019-04-19T19:17:20.527Z,0.00
2019-04-19T19:18:19.317Z,0.00
2019-04-19T19:19:25.208Z,0.00
2019-04-19T19:20:22.618Z,0.00
2019-04-19T19:21:18.388Z,0.00
2019-04-19T19:22:26.157Z,0.00
2019-04-19T19:23:32.713Z,0.00
2019-04-19T19:24:38.807Z,0.00
2019-04-19T19:25:24.950Z,0.00
2019-04-19T19:26:27.453Z,0.00
2019-04-19T19:27:23.483Z,0.00
2019-04-19T19:28:21.348Z,0.00
2019-04-19T19:29:18.457Z,0.00
2019-04-19T19:30:18.233Z,0.00
2019-04-19T19:31:18.789Z,0.00
2019-04-19T19:32:19.508Z,0.00
2019-04-19T19:33:22.093Z,0.00
2019-04-19T19:34:22.467Z,0.00
2019-04-19T19:35:22.001Z,0.00
2019-04-19T19:36:21.183Z,0.00
2019-04-19T19:37:20.791Z,0.00
2019-04-19T19:38:24.137Z,0.00
2019-04-19T19:39:26.664Z,0.00
2019-04-19T19:40:31.416Z,0.00
2019-04-19T19:41:33.746Z,0.00
2019-04-19T19:42:41.202Z,0.00
2019-04-19T19:43:36.876Z,0.00
2019-04-19T19:44:29.725Z,0.00
2019-04-19T19:45:36.230Z,0.00
2019-04-19T19:46:40.184Z,0.00
2019-04-19T19:47:41.009Z,0.00
2019-04-19T19:48:49.698Z,0.00
2019-04-19T19:49:40.463Z,0.00
2019-04-19T19:50:42.797Z,0.00
2019-04-19T19:51:29.552Z,0.00
2019-04-19T19:52:32.745Z,0.00
2019-04-19T19:53:49.083Z,0.00
2019-04-19T19:55:38.680Z,0.00
2019-04-19T19:57:30.034Z,0.00
2019-04-19T19:58:28.084Z,0.00
2019-04-19T19:59:28.294Z,0.00
2019-04-19T20:00:29.277Z,0.00
2019-04-19T20:01:32.501Z,0.00
2019-04-19T20:02:28.010Z,0.00
2019-04-19T20:03:24.462Z,0.00
2019-04-19T20:04:17.729Z,0.00
2019-04-19T20:05:23.063Z,0.00
2019-04-19T20:06:23.694Z,0.00
2019-04-19T20:07:22.063Z,0.00
2019-04-19T20:08:22.788Z,0.00
2019-04-19T20:09:23.032Z,0.00
2019-04-19T20:10:19.357Z,0.00
2019-04-19T20:11:23.610Z,0.00
2019-04-19T20:12:20.564Z,0.00
2019-04-19T20:13:19.420Z,0.00
2019-04-19T20:14:21.455Z,0.00
2019-04-19T20:15:18.588Z,0.00
2019-04-19T20:16:23.653Z,0.00
2019-04-19T20:17:18.175Z,0.00
2019-04-19T20:18:18.205Z,0.00
2019-04-19T20:19:19.696Z,0.00
2019-04-19T20:20:20.475Z,0.00
2019-04-19T20:21:19.927Z,0.00
2019-04-19T20:22:17.414Z,0.00
2019-04-19T20:23:25.805Z,0.00
2019-04-19T20:24:34.058Z,0.00
2019-04-19T20:25:28.450Z,0.00
2019-04-19T20:26:26.325Z,0.00
2019-04-19T20:27:21.919Z,0.00
2019-04-19T20:28:23.433Z,0.00
2019-04-19T20:29:23.905Z,0.00
2019-04-19T20:30:17.284Z,0.00
2019-04-19T20:31:24.098Z,0.00
2019-04-19T20:32:20.407Z,0.00
2019-04-19T20:33:18.359Z,0.00
2019-04-19T20:34:22.842Z,0.00
2019-04-19T20:35:21.161Z,0.00
2019-04-19T20:36:17.184Z,0.00
2019-04-19T20:37:20.426Z,0.00
2019-04-19T20:38:21.514Z,0.00
2019-04-19T20:39:24.013Z,0.00
2019-04-19T20:40:18.026Z,0.00
2019-04-19T20:41:17.105Z,0.00
2019-04-19T20:42:27.063Z,0.00
2019-04-19T20:43:36.208Z,0.00
2019-04-19T20:44:37.843Z,0.00
2019-04-19T20:45:29.131Z,0.00
2019-04-19T20:46:21.830Z,0.00
2019-04-19T20:47:23.100Z,0.00
2019-04-19T20:48:22.461Z,0.00
2019-04-19T20:49:17.196Z,0.00
2019-04-19T20:50:25.438Z,0.00
2019-04-19T20:51:34.047Z,0.00
2019-04-19T20:52:30.889Z,0.00
2019-04-19T20:53:25.278Z,0.00
2019-04-19T20:54:42.633Z,0.00
2019-04-19T20:55:35.831Z,0.00
2019-04-19T20:56:48.022Z,0.00
2019-04-19T20:57:33.682Z,0.00
2019-04-19T20:58:27.614Z,0.00
2019-04-19T20:59:18.078Z,0.00
2019-04-19T21:00:16.775Z,0.00
2019-04-19T21:01:17.001Z,0.00
2019-04-19T21:02:23.778Z,0.00
2019-04-19T21:03:24.615Z,0.00
2019-04-19T21:04:18.537Z,0.00
2019-04-19T21:05:17.688Z,0.00
2019-04-19T21:06:22.142Z,0.00
2019-04-19T21:07:19.981Z,0.00
2019-04-19T21:08:20.805Z,0.00
2019-04-19T21:09:24.041Z,0.00
2019-04-19T21:10:18.597Z,0.00
2019-04-19T21:11:17.235Z,0.00
2019-04-19T21:12:22.728Z,0.00
2019-04-19T21:13:19.579Z,0.00
2019-04-19T21:14:16.531Z,0.00
2019-04-19T21:15:22.359Z,0.00
2019-04-19T21:16:16.499Z,0.00
2019-04-19T21:17:16.622Z,0.00
2019-04-19T21:18:21.868Z,0.00
2019-04-19T21:19:16.448Z,0.00
2019-04-19T21:20:19.769Z,0.00
2019-04-19T21:21:18.337Z,0.00
2019-04-19T21:22:25.734Z,0.00
2019-04-19T21:23:21.936Z,0.00
2019-04-19T21:24:16.427Z,0.00
2019-04-19T21:25:21.359Z,0.00
2019-04-19T21:26:23.062Z,0.00
2019-04-19T21:27:22.426Z,0.00
2019-04-19T21:28:16.744Z,0.00
2019-04-19T21:29:21.032Z,0.00
2019-04-19T21:30:16.781Z,0.00
2019-04-19T21:31:19.332Z,0.00
2019-04-19T21:32:22.500Z,0.00
2019-04-19T21:33:18.644Z,0.00
2019-04-19T21:34:16.213Z,0.00
2019-04-19T21:35:17.461Z,0.00
2019-04-19T21:36:17.891Z,0.00
2019-04-19T21:37:26.604Z,0.00
2019-04-19T21:38:21.529Z,0.00
2019-04-19T21:39:18.334Z,0.00
2019-04-19T21:40:24.188Z,0.00
2019-04-19T21:41:22.923Z,0.00
2019-04-19T21:42:18.960Z,0.00
2019-04-19T21:43:16.952Z,0.00
2019-04-19T21:44:19.901Z,0.00
2019-04-19T21:45:16.029Z,0.00
2019-04-19T21:46:20.187Z,0.00
2019-04-19T21:47:15.999Z,0.00
2019-04-19T21:48:18.049Z,0.00
2019-04-19T21:49:19.314Z,0.00
2019-04-19T21:50:16.966Z,0.00
2019-04-19T21:51:21.704Z,0.00
2019-04-19T21:52:20.505Z,0.00
2019-04-19T21:53:16.584Z,0.00
2019-04-19T21:54:16.664Z,0.00
2019-04-19T21:55:25.367Z,0.00
2019-04-19T21:56:17.189Z,0.00
2019-04-19T21:57:22.655Z,0.00
2019-04-19T21:58:19.523Z,0.00
2019-04-19T21:59:15.801Z,0.00
2019-04-19T22:00:21.100Z,0.00
2019-04-19T22:01:17.810Z,0.00
2019-04-19T22:02:25.630Z,0.00
2019-04-19T22:03:20.094Z,0.00
2019-04-19T22:04:17.166Z,0.00
2019-04-19T22:05:18.301Z,0.00
2019-04-19T22:06:21.446Z,0.00
2019-04-19T22:07:17.060Z,0.00
2019-04-19T22:08:24.070Z,0.00
2019-04-19T22:09:20.481Z,0.00
2019-04-19T22:10:15.607Z,0.00
2019-04-19T22:11:16.317Z,0.00
2019-04-19T22:12:16.533Z,0.00
2019-04-19T22:13:16.685Z,0.00
2019-04-19T22:14:21.447Z,0.00
2019-04-19T22:15:15.841Z,0.00
2019-04-19T22:16:16.664Z,0.00
2019-04-19T22:17:21.012Z,0.00
2019-04-19T22:18:15.470Z,0.00
2019-04-19T22:19:21.539Z,0.00
2019-04-19T22:20:19.527Z,0.00
2019-04-19T22:21:16.637Z,0.00
2019-04-19T22:22:23.560Z,0.00
2019-04-19T22:23:16.207Z,0.00
2019-04-19T22:24:22.242Z,0.00
2019-04-19T22:25:31.085Z,0.00
2019-04-19T22:26:25.068Z,0.00
2019-04-19T22:27:15.656Z,0.00
2019-04-19T22:28:15.392Z,0.00
2019-04-19T22:29:15.551Z,0.00
2019-04-19T22:30:15.712Z,0.00
2019-04-19T22:31:20.823Z,0.00
2019-04-19T22:32:17.574Z,0.00
2019-04-19T22:33:16.391Z,0.00
2019-04-19T22:34:15.180Z,0.00
2019-04-19T22:35:19.036Z,0.00
2019-04-19T22:36:15.457Z,0.00
2019-04-19T22:37:23.513Z,0.00
2019-04-19T22:38:17.861Z,0.00
2019-04-19T22:39:15.826Z,0.00
2019-04-19T22:40:16.459Z,0.00
2019-04-19T22:41:16.892Z,0.00
2019-04-19T22:42:15.081Z,0.00
2019-04-19T22:43:16.327Z,0.00
2019-04-19T22:44:15.016Z,0.00
2019-04-19T22:45:20.107Z,0.00
2019-04-19T22:46:15.737Z,0.00
2019-04-19T22:47:17.702Z,0.00
2019-04-19T22:48:18.276Z,0.00
2019-04-19T22:49:16.509Z,0.00
2019-04-19T22:50:17.949Z,0.00
2019-04-19T22:51:18.392Z,0.00
2019-04-19T22:52:14.867Z,0.00
2019-04-19T22:53:19.111Z,0.00
2019-04-19T22:54:14.957Z,0.00
2019-04-19T22:55:17.645Z,0.00
2019-04-19T22:56:22.719Z,0.00
2019-04-19T22:57:18.844Z,0.00
2019-04-19T22:58:21.244Z,0.00
2019-04-19T22:59:18.286Z,0.00
2019-04-19T23:00:15.972Z,0.00
2019-04-19T23:01:19.752Z,0.00
2019-04-19T23:02:14.694Z,0.00
2019-04-19T23:03:25.104Z,0.00
2019-04-19T23:04:19.171Z,0.00
2019-04-19T23:05:14.942Z,0.00
2019-04-19T23:06:19.859Z,0.00
2019-04-19T23:07:14.645Z,0.00
2019-04-19T23:08:19.247Z,0.00
2019-04-19T23:09:19.118Z,0.00
2019-04-19T23:10:14.848Z,0.00
2019-04-19T23:11:15.241Z,0.00
2019-04-19T23:12:14.524Z,0.00
2019-04-19T23:13:15.559Z,0.00
2019-04-19T23:14:14.491Z,0.00
2019-04-19T23:15:19.298Z,0.00
2019-04-19T23:16:15.430Z,0.00
2019-04-19T23:17:14.609Z,0.00
2019-04-19T23:18:18.700Z,0.00
2019-04-19T23:19:14.757Z,0.00
2019-04-19T23:20:19.835Z,0.00
2019-04-19T23:21:19.483Z,0.00
2019-04-19T23:22:14.386Z,0.00
2019-04-19T23:23:21.668Z,0.00
2019-04-19T23:24:16.257Z,0.00
2019-04-19T23:25:15.610Z,0.00
2019-04-19T23:26:22.457Z,0.00
2019-04-19T23:27:21.652Z,0.00
2019-04-19T23:28:22.205Z,0.00
2019-04-19T23:29:21.907Z,0.00
2019-04-19T23:30:18.816Z,0.00
2019-04-19T23:31:15.999Z,0.00
2019-04-19T23:32:17.701Z,0.00
2019-04-19T23:33:18.081Z,0.00
2019-04-19T23:34:14.313Z,0.00
2019-04-19T23:35:14.247Z,0.00
2019-04-19T23:36:18.934Z,0.00
2019-04-19T23:37:16.747Z,0.00
2019-04-19T23:38:19.854Z,0.00
2019-04-19T23:39:15.549Z,0.00
2019-04-19T23:40:15.132Z,0.00
2019-04-19T23:41:15.201Z,0.00
2019-04-19T23:42:15.123Z,0.00
2019-04-19T23:43:15.910Z,0.00
2019-04-19T23:44:17.996Z,0.00
2019-04-19T23:45:14.702Z,0.00
2019-04-19T23:46:19.484Z,0.00
2019-04-19T23:47:13.929Z,0.00
2019-04-19T23:48:20.124Z,0.00
2019-04-19T23:49:16.106Z,0.00
2019-04-19T23:50:13.877Z,0.00
2019-04-19T23:51:16.510Z,0.00
2019-04-19T23:52:14.939Z,0.00
2019-04-19T23:53:14.380Z,0.00
2019-04-19T23:54:20.586Z,0.00
2019-04-19T23:55:14.627Z,0.00
2019-04-19T23:56:22.618Z,0.00
2019-04-19T23:57:19.823Z,0.00
2019-04-19T23:58:22.913Z,0.00
2019-04-19T23:59:18.996Z,0.00
